createdAt,value
2017-11-05T00:00:33.006Z,67.40
2017-11-05T00:03:01.871Z,65.32
2017-11-05T00:05:30.719Z,67.20
2017-11-05T00:07:59.574Z,63.58
2017-11-05T00:10:28.428Z,62.62
2017-11-05T00:12:57.278Z,63.87
2017-11-05T00:15:26.910Z,63.00
2017-11-05T00:17:55.774Z,61.22
2017-11-05T00:20:25.387Z,59.80
2017-11-05T00:22:54.999Z,65.87
2017-11-05T00:25:23.867Z,61.97
2017-11-05T00:27:52.717Z,59.75
2017-11-05T00:30:21.555Z,64.22
2017-11-05T00:32:50.399Z,60.80
2017-11-05T00:35:19.238Z,60.00
2017-11-05T00:37:48.095Z,61.17
2017-11-05T00:40:16.948Z,60.55
2017-11-05T00:42:45.795Z,58.92
2017-11-05T00:45:14.661Z,62.03
2017-11-05T00:47:43.513Z,59.17
2017-11-05T00:50:13.139Z,61.65
2017-11-05T00:52:41.992Z,63.47
2017-11-05T00:55:10.833Z,55.72
2017-11-05T00:57:39.706Z,61.40
2017-11-05T01:00:08.593Z,59.80
2017-11-05T01:02:37.447Z,65.10
2017-11-05T01:05:05.963Z,57.22
2017-11-05T01:07:35.586Z,57.30
2017-11-05T01:10:04.134Z,58.97
2017-11-05T01:12:32.995Z,56.42
2017-11-05T01:15:01.847Z,56.47
2017-11-05T01:17:30.702Z,57.28
2017-11-05T01:19:59.571Z,58.00
2017-11-05T01:22:28.422Z,61.15
2017-11-05T01:24:57.271Z,58.70
2017-11-05T01:27:26.118Z,60.63
2017-11-05T01:29:55.482Z,55.20
2017-11-05T01:32:25.172Z,54.40
2017-11-05T01:34:54.037Z,55.05
2017-11-05T01:37:22.926Z,55.97
2017-11-05T01:39:52.768Z,54.63
2017-11-05T01:42:21.610Z,54.58
2017-11-05T01:44:50.464Z,55.72
2017-11-05T01:47:20.079Z,49.80
2017-11-05T01:49:49.712Z,53.67
2017-11-05T01:52:18.400Z,48.70
2017-11-05T01:54:48.021Z,53.33
2017-11-05T01:57:16.887Z,54.58
2017-11-05T01:59:45.976Z,50.90
2017-11-05T02:02:15.602Z,56.92
2017-11-05T02:04:44.521Z,51.55
2017-11-05T02:07:12.730Z,44.97
2017-11-05T02:09:41.554Z,56.97
2017-11-05T02:12:10.418Z,52.30
2017-11-05T02:14:38.939Z,51.45
2017-11-05T02:17:07.808Z,50.20
2017-11-05T02:19:37.168Z,59.63
2017-11-05T02:22:06.570Z,53.55
2017-11-05T02:24:35.087Z,51.15
2017-11-05T02:27:05.267Z,51.75
2017-11-05T02:29:33.790Z,59.25
2017-11-05T02:32:03.573Z,56.47
2017-11-05T02:34:32.468Z,49.97
2017-11-05T02:37:01.071Z,59.97
2017-11-05T02:39:29.932Z,53.70
2017-11-05T02:41:58.779Z,53.83
2017-11-05T02:44:28.439Z,61.72
2017-11-05T02:46:56.650Z,60.38
2017-11-05T02:49:25.607Z,55.08
2017-11-05T02:51:54.141Z,58.15
2017-11-05T02:54:23.785Z,54.90
2017-11-05T02:56:52.323Z,60.22
2017-11-05T02:59:21.635Z,59.33
2017-11-05T03:01:50.897Z,56.63
2017-11-05T03:04:20.770Z,56.30
2017-11-05T03:06:49.352Z,56.30
2017-11-05T03:09:17.951Z,57.10
2017-11-05T03:11:46.159Z,50.53
2017-11-05T03:14:14.351Z,57.92
2017-11-05T03:16:42.539Z,54.17
2017-11-05T03:19:11.843Z,54.53
2017-11-05T03:21:40.075Z,53.13
2017-11-05T03:24:08.278Z,48.75
2017-11-05T03:26:37.257Z,48.83
2017-11-05T03:29:05.481Z,54.13
2017-11-05T03:31:34.608Z,53.22
2017-11-05T03:34:03.199Z,52.50
2017-11-05T03:36:31.627Z,52.03
2017-11-05T03:39:00.586Z,46.88
2017-11-05T03:41:29.113Z,51.90
2017-11-05T03:43:57.647Z,49.30
2017-11-05T03:46:25.832Z,53.67
2017-11-05T03:48:54.380Z,47.55
2017-11-05T03:51:22.859Z,50.83
2017-11-05T03:53:52.341Z,50.08
2017-11-05T03:56:21.228Z,50.05
2017-11-05T03:58:49.824Z,49.08
2017-11-05T04:01:19.644Z,50.12
2017-11-05T04:03:48.743Z,46.50
2017-11-05T04:06:17.291Z,52.60
2017-11-05T04:08:45.493Z,51.47
2017-11-05T04:11:14.375Z,47.45
2017-11-05T04:13:43.232Z,41.88
2017-11-05T04:16:11.803Z,50.35
2017-11-05T04:18:40.433Z,53.97
2017-11-05T04:21:09.398Z,49.38
2017-11-05T04:23:37.957Z,49.15
2017-11-05T04:26:06.852Z,52.13
2017-11-05T04:28:36.063Z,51.85
2017-11-05T04:31:04.608Z,52.58
2017-11-05T04:33:33.145Z,50.15
2017-11-05T04:36:01.342Z,49.20
2017-11-05T04:38:30.146Z,51.67
2017-11-05T04:40:59.025Z,48.97
2017-11-05T04:43:27.562Z,52.17
2017-11-05T04:45:56.105Z,47.62
2017-11-05T04:48:24.640Z,52.53
2017-11-05T04:50:53.192Z,50.60
2017-11-05T04:53:22.326Z,46.33
2017-11-05T04:55:50.881Z,51.85
2017-11-05T04:58:18.922Z,49.40
2017-11-05T05:00:47.882Z,50.83
2017-11-05T05:03:16.107Z,51.78
2017-11-05T05:05:44.311Z,49.58
2017-11-05T05:08:12.991Z,48.47
2017-11-05T05:10:41.708Z,47.62
2017-11-05T05:13:10.840Z,52.38
2017-11-05T05:15:39.040Z,50.35
2017-11-05T05:18:08.559Z,55.38
2017-11-05T05:20:37.854Z,53.78
2017-11-05T05:23:07.182Z,52.92
2017-11-05T05:25:36.085Z,52.00
2017-11-05T05:28:04.641Z,54.00
2017-11-05T05:30:33.170Z,53.13
2017-11-05T05:33:02.475Z,55.75
2017-11-05T05:35:31.421Z,50.55
2017-11-05T05:37:59.639Z,55.12
2017-11-05T05:40:29.387Z,55.53
2017-11-05T05:42:57.596Z,57.90
2017-11-05T05:45:26.147Z,49.92
2017-11-05T05:47:54.687Z,59.75
2017-11-05T05:50:22.853Z,51.35
2017-11-05T05:52:51.386Z,51.22
2017-11-05T05:55:19.543Z,53.08
2017-11-05T05:57:47.756Z,55.08
2017-11-05T06:00:15.956Z,57.78
2017-11-05T06:02:45.461Z,50.65
2017-11-05T06:05:13.669Z,50.95
2017-11-05T06:07:41.858Z,47.35
2017-11-05T06:10:10.759Z,51.33
2017-11-05T06:12:39.286Z,52.15
2017-11-05T06:15:07.515Z,47.65
2017-11-05T06:17:36.644Z,44.83
2017-11-05T06:20:05.586Z,46.55
2017-11-05T06:22:33.774Z,42.00
2017-11-05T06:25:03.024Z,42.28
2017-11-05T06:27:31.230Z,43.80
2017-11-05T06:29:59.467Z,39.28
2017-11-05T06:32:27.688Z,42.38
2017-11-05T06:34:56.259Z,42.83
2017-11-05T06:37:25.101Z,47.38
2017-11-05T06:39:53.294Z,43.55
2017-11-05T06:42:21.507Z,45.85
2017-11-05T06:44:50.869Z,42.50
2017-11-05T06:47:18.912Z,40.15
2017-11-05T06:49:47.444Z,42.08
2017-11-05T06:52:16.415Z,40.12
2017-11-05T06:54:45.168Z,40.05
2017-11-05T06:57:14.153Z,38.63
2017-11-05T06:59:42.347Z,41.33
2017-11-05T07:02:10.894Z,39.90
2017-11-05T07:04:40.538Z,40.95
2017-11-05T07:07:09.068Z,35.08
2017-11-05T07:09:37.304Z,35.72
2017-11-05T07:12:05.503Z,44.20
2017-11-05T07:14:34.044Z,37.50
2017-11-05T07:17:02.247Z,37.72
2017-11-05T07:19:30.444Z,36.75
2017-11-05T07:21:59.012Z,38.33
2017-11-05T07:24:27.594Z,35.92
2017-11-05T07:26:56.470Z,42.55
2017-11-05T07:29:24.487Z,32.42
2017-11-05T07:31:52.707Z,35.80
2017-11-05T07:34:20.883Z,36.08
2017-11-05T07:36:49.062Z,38.20
2017-11-05T07:39:17.235Z,34.28
2017-11-05T07:41:46.167Z,38.78
2017-11-05T07:44:15.318Z,34.40
2017-11-05T07:46:43.523Z,35.28
2017-11-05T07:49:11.718Z,37.83
2017-11-05T07:51:39.918Z,38.63
2017-11-05T07:54:09.524Z,35.00
2017-11-05T07:56:39.151Z,32.20
2017-11-05T07:59:07.571Z,35.40
2017-11-05T08:06:44.360Z,36.00
2017-11-05T08:09:18.112Z,39.63
2017-11-05T08:11:47.150Z,39.13
2017-11-05T08:14:15.364Z,39.15
2017-11-05T08:16:43.960Z,35.85
2017-11-05T08:19:12.172Z,35.33
2017-11-05T08:21:41.458Z,33.67
2017-11-05T08:24:10.599Z,32.92
2017-11-05T08:26:39.488Z,41.20
2017-11-05T08:29:08.355Z,33.40
2017-11-05T08:31:37.970Z,39.40
2017-11-05T08:34:06.830Z,42.03
2017-11-05T08:36:35.674Z,40.45
2017-11-05T08:39:03.850Z,39.17
2017-11-05T08:41:32.030Z,37.22
2017-11-05T08:44:00.874Z,36.78
2017-11-05T08:46:30.481Z,35.65
2017-11-05T08:48:59.380Z,34.80
2017-11-05T08:51:28.985Z,40.45
2017-11-05T08:53:58.603Z,40.58
2017-11-05T08:56:28.274Z,41.75
2017-11-05T08:58:57.130Z,47.13
2017-11-05T09:01:25.302Z,54.50
2017-11-05T09:03:53.492Z,47.85
2017-11-05T09:06:22.343Z,49.35
2017-11-05T09:08:51.973Z,56.65
2017-11-05T09:11:20.174Z,52.97
2017-11-05T09:13:49.023Z,56.53
2017-11-05T09:16:18.339Z,50.80
2017-11-05T09:18:47.192Z,55.25
2017-11-05T09:21:16.040Z,51.83
2017-11-05T09:23:44.886Z,58.97
2017-11-05T09:26:13.084Z,51.17
2017-11-05T09:28:41.923Z,55.65
2017-11-05T09:31:12.040Z,57.28
2017-11-05T09:33:40.900Z,54.78
2017-11-05T09:36:09.776Z,54.13
2017-11-05T09:38:38.623Z,53.72
2017-11-05T09:41:07.486Z,51.72
2017-11-05T09:43:36.324Z,57.08
2017-11-05T09:46:05.939Z,56.75
2017-11-05T09:48:35.673Z,43.40
2017-11-05T09:51:04.506Z,53.00
2017-11-05T09:53:33.398Z,47.38
2017-11-05T09:56:02.287Z,50.12
2017-11-05T09:58:31.159Z,49.03
2017-11-05T10:01:00.255Z,45.65
2017-11-05T10:03:29.098Z,51.58
2017-11-05T10:05:58.704Z,55.33
2017-11-05T10:08:28.355Z,47.25
2017-11-05T10:10:57.686Z,53.75
2017-11-05T10:13:26.632Z,52.75
2017-11-05T10:15:55.505Z,52.88
2017-11-05T10:18:25.127Z,46.78
2017-11-05T10:20:54.038Z,48.63
2017-11-05T10:23:22.894Z,50.38
2017-11-05T10:25:52.518Z,51.53
2017-11-05T10:28:22.190Z,49.42
2017-11-05T10:30:51.071Z,44.55
2017-11-05T10:33:21.482Z,49.10
2017-11-05T10:35:51.381Z,46.03
2017-11-05T10:38:20.476Z,46.00
2017-11-05T10:40:50.499Z,45.08
2017-11-05T10:43:19.635Z,46.37
2017-11-05T10:45:50.144Z,47.53
2017-11-05T10:48:19.338Z,45.12
2017-11-05T10:50:49.798Z,42.85
2017-11-05T10:53:19.016Z,43.83
2017-11-05T10:55:49.133Z,49.30
2017-11-05T10:58:19.194Z,44.63
2017-11-05T11:00:48.356Z,51.88
2017-11-05T11:03:18.219Z,45.03
2017-11-05T11:05:47.470Z,52.03
2017-11-05T11:08:17.367Z,46.60
2017-11-05T11:10:46.508Z,48.28
2017-11-05T11:13:15.633Z,50.30
2017-11-05T11:15:45.465Z,45.20
2017-11-05T11:18:17.380Z,43.30
2017-11-05T11:20:46.508Z,45.25
2017-11-05T11:23:15.718Z,42.55
2017-11-05T11:25:44.650Z,44.85
2017-11-05T11:28:14.550Z,44.20
2017-11-05T11:30:46.435Z,50.72
2017-11-05T11:33:15.553Z,47.03
2017-11-05T11:35:45.498Z,44.25
2017-11-05T11:38:14.676Z,47.72
2017-11-05T11:40:44.833Z,46.63
2017-11-05T11:43:13.944Z,49.47
2017-11-05T11:45:43.844Z,46.97
2017-11-05T11:48:12.788Z,42.33
2017-11-05T11:50:41.855Z,43.03
2017-11-05T11:53:11.756Z,51.83
2017-11-05T11:55:40.836Z,47.25
2017-11-05T11:58:12.806Z,44.13
2017-11-05T12:00:42.020Z,53.03
2017-11-05T12:03:11.661Z,47.55
2017-11-05T12:05:40.540Z,45.88
2017-11-05T12:08:09.714Z,51.08
2017-11-05T12:10:39.669Z,42.60
2017-11-05T12:13:09.462Z,45.75
2017-11-05T12:15:40.320Z,46.35
2017-11-05T12:18:09.490Z,47.53
2017-11-05T12:20:40.268Z,51.47
2017-11-05T12:23:09.364Z,44.28
2017-11-05T12:25:38.236Z,46.10
2017-11-05T12:28:07.101Z,52.45
2017-11-05T12:30:36.629Z,50.33
2017-11-05T12:33:05.511Z,59.05
2017-11-05T12:35:34.383Z,50.78
2017-11-05T12:38:03.235Z,48.65
2017-11-05T12:40:32.117Z,46.92
2017-11-05T12:43:00.939Z,51.90
2017-11-05T12:45:29.816Z,51.03
2017-11-05T12:47:58.665Z,49.78
2017-11-05T12:50:27.520Z,48.30
2017-11-05T12:52:56.383Z,46.40
2017-11-05T12:55:25.223Z,52.60
2017-11-05T12:57:54.836Z,52.05
2017-11-05T13:00:24.487Z,50.33
2017-11-05T13:02:53.347Z,52.25
2017-11-05T13:05:22.959Z,51.60
2017-11-05T13:07:52.759Z,51.45
2017-11-05T13:10:21.624Z,56.45
2017-11-05T13:12:50.470Z,51.25
2017-11-05T13:15:19.326Z,55.45
2017-11-05T13:17:48.950Z,47.25
2017-11-05T13:20:17.479Z,52.65
2017-11-05T13:22:46.318Z,53.25
2017-11-05T13:25:15.937Z,53.50
2017-11-05T13:27:44.787Z,53.55
2017-11-05T13:30:13.633Z,57.65
2017-11-05T13:32:42.535Z,59.35
2017-11-05T13:35:11.396Z,58.35
2017-11-05T13:37:40.233Z,58.25
2017-11-05T13:40:09.187Z,56.72
2017-11-05T13:42:38.229Z,53.53
2017-11-05T13:45:07.131Z,57.20
2017-11-05T13:47:35.997Z,58.85
2017-11-05T13:50:04.548Z,58.20
2017-11-05T13:52:33.404Z,55.80
2017-11-05T13:55:02.262Z,59.53
2017-11-05T13:57:32.074Z,60.55
2017-11-05T14:00:01.911Z,58.67
2017-11-05T14:02:30.811Z,58.92
2017-11-05T14:04:59.672Z,60.63
2017-11-05T14:07:28.519Z,62.85
2017-11-05T14:09:58.145Z,55.12
2017-11-05T14:12:27.001Z,57.30
2017-11-05T14:14:56.618Z,56.78
2017-11-05T14:17:26.350Z,60.92
2017-11-05T14:19:55.208Z,60.00
2017-11-05T14:22:24.832Z,57.47
2017-11-05T14:24:54.515Z,54.33
2017-11-05T14:27:23.377Z,60.92
2017-11-05T14:29:52.253Z,61.67
2017-11-05T14:32:21.119Z,63.45
2017-11-05T14:34:50.736Z,55.58
2017-11-05T14:37:19.591Z,58.10
2017-11-05T14:39:48.473Z,53.05
2017-11-05T14:42:17.319Z,59.63
2017-11-05T14:44:46.178Z,63.35
2017-11-05T14:47:16.372Z,58.60
2017-11-05T14:49:45.230Z,56.53
2017-11-05T14:52:14.110Z,55.63
2017-11-05T14:54:42.296Z,58.72
2017-11-05T14:57:11.168Z,61.83
2017-11-05T14:59:40.029Z,63.03
2017-11-05T15:02:08.895Z,55.72
2017-11-05T15:04:37.772Z,62.92
2017-11-05T15:07:06.618Z,58.92
2017-11-05T15:09:37.213Z,59.72
2017-11-05T15:12:06.088Z,60.70
2017-11-05T15:14:34.956Z,62.80
2017-11-05T15:17:08.075Z,57.22
2017-11-05T15:19:37.559Z,60.05
2017-11-05T15:22:06.833Z,63.50
2017-11-05T15:24:36.493Z,59.55
2017-11-05T15:27:05.031Z,59.50
2017-11-05T15:29:34.723Z,59.08
2017-11-05T15:32:03.251Z,64.72
2017-11-05T15:34:32.215Z,58.10
2017-11-05T15:37:01.755Z,64.75
2017-11-05T15:39:31.448Z,84.40
2017-11-05T15:44:37.669Z,62.05
2017-11-05T15:47:06.908Z,56.03
2017-11-05T15:49:36.035Z,58.15
2017-11-05T15:52:05.328Z,58.92
2017-11-05T15:54:35.631Z,61.65
2017-11-05T15:57:04.443Z,62.55
2017-11-05T15:59:33.144Z,58.63
2017-11-05T16:04:41.934Z,60.53
2017-11-05T16:07:12.845Z,60.22
2017-11-05T16:09:42.562Z,63.33
2017-11-05T16:12:12.744Z,58.75
2017-11-05T16:14:41.627Z,60.85
2017-11-05T16:17:11.383Z,63.72
2017-11-05T16:19:40.956Z,54.72
2017-11-05T16:22:10.643Z,60.53
2017-11-05T16:24:40.018Z,64.07
2017-11-05T16:27:08.911Z,61.50
2017-11-05T16:29:38.705Z,66.12
2017-11-05T16:32:07.294Z,69.35
2017-11-05T16:34:36.198Z,62.08
2017-11-05T16:37:05.078Z,56.03
2017-11-05T16:39:35.880Z,61.45
2017-11-05T16:42:05.258Z,62.88
2017-11-05T16:44:34.964Z,67.80
2017-11-05T16:47:03.842Z,63.97
2017-11-05T16:49:32.751Z,67.93
2017-11-05T16:52:01.634Z,60.50
2017-11-05T16:54:31.700Z,63.03
2017-11-05T16:57:00.557Z,58.87
2017-11-05T16:59:30.887Z,58.22
2017-11-05T17:01:59.481Z,61.80
2017-11-05T17:04:28.715Z,71.78
2017-11-05T17:09:31.869Z,65.80
2017-11-05T17:12:01.997Z,63.15
2017-11-05T17:14:31.811Z,63.92
2017-11-05T17:17:02.272Z,68.03
2017-11-05T17:19:31.855Z,62.92
2017-11-05T17:22:01.496Z,60.28
2017-11-05T17:24:31.053Z,60.60
2017-11-05T17:27:01.031Z,66.37
2017-11-05T17:29:29.747Z,73.78
2017-11-05T17:31:58.740Z,60.28
2017-11-05T17:34:29.184Z,62.67
2017-11-05T17:36:58.155Z,67.90
2017-11-05T17:39:27.833Z,68.90
2017-11-05T17:41:56.700Z,67.57
2017-11-05T17:44:25.558Z,72.28
2017-11-05T17:46:55.267Z,71.22
2017-11-05T17:49:24.150Z,65.90
2017-11-05T17:51:56.405Z,73.12
2017-11-05T17:54:29.387Z,76.80
2017-11-05T17:56:58.702Z,68.32
2017-11-05T17:59:29.038Z,74.80
2017-11-05T18:01:59.294Z,62.72
2017-11-05T18:04:28.168Z,66.37
2017-11-05T18:06:57.855Z,62.72
2017-11-05T18:09:28.327Z,64.60
2017-11-05T18:11:57.980Z,68.37
2017-11-05T18:14:26.898Z,63.15
2017-11-05T18:16:55.840Z,62.38
2017-11-05T18:19:24.801Z,70.78
2017-11-05T18:21:54.612Z,69.87
2017-11-05T18:24:28.275Z,70.07
2017-11-05T18:26:57.996Z,75.05
2017-11-05T18:29:27.901Z,72.40
2017-11-05T18:31:56.742Z,77.28
2017-11-05T18:34:27.268Z,78.70
2017-11-05T18:36:59.605Z,83.62
2017-11-05T18:39:28.482Z,78.97
2017-11-05T18:41:58.879Z,84.50
2017-11-05T18:50:42.949Z,85.62
2017-11-05T18:55:46.954Z,90.10
2017-11-05T18:58:19.200Z,83.37
2017-11-05T19:00:52.617Z,77.62
2017-11-05T19:06:00.888Z,71.65
2017-11-05T19:08:29.785Z,55.72
2017-11-05T19:10:58.696Z,37.30
2017-11-05T19:13:28.725Z,11.10
2017-11-05T19:15:57.590Z,10.32
2017-11-05T19:18:27.162Z,5.50
2017-11-05T19:20:56.487Z,5.40
2017-11-05T19:26:27.328Z,4.57
2017-11-05T19:35:00.711Z,3.53
2017-11-05T19:40:21.626Z,3.17
2017-11-05T19:45:56.996Z,3.47
2017-11-05T19:48:31.621Z,4.80
2017-11-05T19:51:08.562Z,3.80
2017-11-05T19:53:37.127Z,3.15
2017-11-05T19:56:06.898Z,3.83
2017-11-05T19:58:36.949Z,5.47
2017-11-05T20:01:06.595Z,3.05
2017-11-05T20:03:35.940Z,5.60
2017-11-05T20:06:04.483Z,9.18
2017-11-05T20:08:34.122Z,4.30
2017-11-05T20:11:03.864Z,3.37
2017-11-05T20:13:32.755Z,2.85
2017-11-05T20:16:02.464Z,4.97
2017-11-05T20:18:32.482Z,4.68
2017-11-05T20:21:01.976Z,6.03
2017-11-05T20:23:30.929Z,8.15
2017-11-05T20:25:59.766Z,6.47
2017-11-05T20:28:28.679Z,7.05
2017-11-05T20:30:58.367Z,8.93
2017-11-05T20:33:26.939Z,7.22
2017-11-05T20:35:56.698Z,5.10
2017-11-05T20:38:25.647Z,9.07
2017-11-05T20:43:36.313Z,5.45
2017-11-05T20:46:09.632Z,7.00
2017-11-05T20:48:38.480Z,9.10
2017-11-05T20:51:08.206Z,7.40
2017-11-05T20:53:37.821Z,3.47
2017-11-05T20:56:06.664Z,4.85
2017-11-05T20:58:35.496Z,5.40
2017-11-05T21:01:05.100Z,4.15
2017-11-05T21:03:34.716Z,4.75
2017-11-05T21:06:03.793Z,4.85
2017-11-05T21:08:32.616Z,5.78
2017-11-05T21:11:01.458Z,4.53
2017-11-05T21:13:30.777Z,4.35
2017-11-05T21:15:59.617Z,6.12
2017-11-05T21:18:28.458Z,9.45
2017-11-05T21:20:58.068Z,6.47
2017-11-05T21:23:27.679Z,6.00
2017-11-05T21:25:57.297Z,7.18
2017-11-05T21:28:26.913Z,7.03
2017-11-05T21:30:55.838Z,8.18
2017-11-05T21:33:25.250Z,8.15
2017-11-05T21:35:54.202Z,7.25
2017-11-05T21:38:23.672Z,9.68
2017-11-05T21:40:52.527Z,11.32
2017-11-05T21:46:15.412Z,13.82
2017-11-05T21:48:44.571Z,9.02
2017-11-05T21:51:13.415Z,10.00
2017-11-05T21:53:42.314Z,10.30
2017-11-05T21:56:14.999Z,7.40
2017-11-05T21:58:44.581Z,7.18
2017-11-05T22:01:13.444Z,10.90
2017-11-05T22:03:43.096Z,7.50
2017-11-05T22:06:12.263Z,13.50
2017-11-05T22:08:44.360Z,6.22
2017-11-05T22:11:14.569Z,7.95
2017-11-05T22:13:43.455Z,7.00
2017-11-05T22:16:12.303Z,9.75
2017-11-05T22:18:41.134Z,10.93
2017-11-05T22:21:10.304Z,8.63
2017-11-05T22:23:39.168Z,14.20
2017-11-05T22:26:08.278Z,8.77
2017-11-05T22:28:37.892Z,6.70
2017-11-05T22:31:06.718Z,8.20
2017-11-05T22:33:35.579Z,13.95
2017-11-05T22:36:05.680Z,7.37
2017-11-05T22:38:34.520Z,8.65
2017-11-05T22:41:09.356Z,6.68
2017-11-05T22:46:24.511Z,8.23
2017-11-05T22:48:55.294Z,9.27
2017-11-05T22:51:24.629Z,7.80
2017-11-05T22:53:54.803Z,6.90
2017-11-05T22:56:24.998Z,7.03
2017-11-05T22:58:56.366Z,10.48
2017-11-05T23:04:05.111Z,7.80
2017-11-05T23:06:33.946Z,6.93
2017-11-05T23:09:08.009Z,9.15
2017-11-05T23:11:42.875Z,7.72
2017-11-05T23:14:11.724Z,9.65
2017-11-05T23:16:40.559Z,20.08
2017-11-05T23:19:13.227Z,11.38
2017-11-05T23:24:27.558Z,16.60
2017-11-05T23:27:01.272Z,15.52
2017-11-05T23:29:32.344Z,19.50
2017-11-05T23:32:01.240Z,18.17
2017-11-05T23:34:30.350Z,17.92
2017-11-05T23:37:01.117Z,21.33
2017-11-05T23:39:30.847Z,22.20
2017-11-05T23:42:05.664Z,18.83
2017-11-05T23:44:36.312Z,20.00
2017-11-05T23:47:05.222Z,19.12
2017-11-05T23:49:33.993Z,21.80
2017-11-05T23:52:02.834Z,21.65
2017-11-05T23:57:18.067Z,17.25
2017-11-05T23:59:48.644Z,16.90
